sensor_id;sensor_type;location;lat;lon;timestamp;P1;P2;P0
55076;PMS7003;40971;44.702;11.030;2023-07-20T00:00:24;5.00;5.00;3.80
55076;PMS7003;40971;44.702;11.030;2023-07-20T00:10:27;4.83;4.83;4.33
55076;PMS7003;40971;44.702;11.030;2023-07-20T00:20:30;6.00;5.60;4.20
55076;PMS7003;40971;44.702;11.030;2023-07-20T00:30:32;10.40;9.20;5.40
55076;PMS7003;40971;44.702;11.030;2023-07-20T00:40:38;10.00;8.67;4.17
55076;PMS7003;40971;44.702;11.030;2023-07-20T00:50:42;5.33;4.33;4.00
55076;PMS7003;40971;44.702;11.030;2023-07-20T01:00:44;11.00;11.00;8.00
55076;PMS7003;40971;44.702;11.030;2023-07-20T01:10:50;10.67;10.33;9.00
55076;PMS7003;40971;44.702;11.030;2023-07-20T01:20:59;15.33;12.00;9.00
55076;PMS7003;40971;44.702;11.030;2023-07-20T01:41:33;12.00;11.60;9.00
55076;PMS7003;40971;44.702;11.030;2023-07-20T01:51:36;17.20;15.80;11.00
55076;PMS7003;40971;44.702;11.030;2023-07-20T02:01:37;14.33;12.33;10.67
55076;PMS7003;40971;44.702;11.030;2023-07-20T02:11:38;19.00;18.50;15.00
55076;PMS7003;40971;44.702;11.030;2023-07-20T02:21:40;27.00;25.00;17.00
55076;PMS7003;40971;44.702;11.030;2023-07-20T02:31:42;26.67;24.33;16.00
55076;PMS7003;40971;44.702;11.030;2023-07-20T02:41:44;22.00;21.00;13.50
55076;PMS7003;40971;44.702;11.030;2023-07-20T02:51:46;19.67;17.67;12.33
55076;PMS7003;40971;44.702;11.030;2023-07-20T03:01:48;19.00;19.00;15.33
55076;PMS7003;40971;44.702;11.030;2023-07-20T03:11:50;18.00;18.00;14.00
55076;PMS7003;40971;44.702;11.030;2023-07-20T03:21:52;16.00;15.00;11.67
55076;PMS7003;40971;44.702;11.030;2023-07-20T03:31:53;12.67;12.00;9.33
55076;PMS7003;40971;44.702;11.030;2023-07-20T03:41:54;15.50;13.50;11.00
55076;PMS7003;40971;44.702;11.030;2023-07-20T03:51:55;15.67;15.33;10.33
55076;PMS7003;40971;44.702;11.030;2023-07-20T04:01:56;14.00;13.00;9.67
55076;PMS7003;40971;44.702;11.030;2023-07-20T04:11:58;13.67;13.00;10.00
55076;PMS7003;40971;44.702;11.030;2023-07-20T04:21:59;11.33;11.33;9.00
55076;PMS7003;40971;44.702;11.030;2023-07-20T04:32:01;9.00;9.00;6.33
55076;PMS7003;40971;44.702;11.030;2023-07-20T04:42:02;9.00;9.00;6.00
55076;PMS7003;40971;44.702;11.030;2023-07-20T04:52:05;11.57;11.57;7.71
55076;PMS7003;40971;44.702;11.030;2023-07-20T05:02:07;11.00;11.00;6.60
55076;PMS7003;40971;44.702;11.030;2023-07-20T05:12:08;13.00;13.00;10.33
55076;PMS7003;40971;44.702;11.030;2023-07-20T05:22:13;15.29;15.29;11.29
55076;PMS7003;40971;44.702;11.030;2023-07-20T05:32:15;14.33;14.33;10.00
55076;PMS7003;40971;44.702;11.030;2023-07-20T05:42:19;18.50;18.50;12.75
55076;PMS7003;40971;44.702;11.030;2023-07-20T05:52:20;17.00;15.00;12.00
55076;PMS7003;40971;44.702;11.030;2023-07-20T06:02:21;13.00;13.00;9.00
55076;PMS7003;40971;44.702;11.030;2023-07-20T06:12:23;10.67;10.67;8.00
55076;PMS7003;40971;44.702;11.030;2023-07-20T06:22:24;10.33;10.00;7.00
55076;PMS7003;40971;44.702;11.030;2023-07-20T06:32:27;11.29;10.71;8.00
55076;PMS7003;40971;44.702;11.030;2023-07-20T06:42:28;12.00;10.67;8.33
55076;PMS7003;40971;44.702;11.030;2023-07-20T06:52:30;11.00;10.33;8.67
55076;PMS7003;40971;44.702;11.030;2023-07-20T07:02:32;10.00;10.00;8.33
55076;PMS7003;40971;44.702;11.030;2023-07-20T07:12:35;10.67;10.67;8.33
55076;PMS7003;40971;44.702;11.030;2023-07-20T07:22:36;13.00;13.00;10.00
55076;PMS7003;40971;44.702;11.030;2023-07-20T07:32:38;13.40;12.60;8.40
55076;PMS7003;40971;44.702;11.030;2023-07-20T07:42:41;9.57;9.00;7.00
55076;PMS7003;40971;44.702;11.030;2023-07-20T07:52:43;10.33;9.33;8.00
55076;PMS7003;40971;44.702;11.030;2023-07-20T08:02:44;13.33;12.00;10.00
55076;PMS7003;40971;44.702;11.030;2023-07-20T08:12:48;10.80;10.20;8.00
55076;PMS7003;40971;44.702;11.030;2023-07-20T08:22:49;11.80;11.20;8.80
55076;PMS7003;40971;44.702;11.030;2023-07-20T08:32:50;12.67;12.67;8.67
55076;PMS7003;40971;44.702;11.030;2023-07-20T08:42:52;13.00;13.00;10.00
55076;PMS7003;40971;44.702;11.030;2023-07-20T08:52:56;12.00;12.00;10.00
55076;PMS7003;40971;44.702;11.030;2023-07-20T09:02:59;12.50;12.50;9.00
55076;PMS7003;40971;44.702;11.030;2023-07-20T09:13:05;11.00;11.00;8.50
55076;PMS7003;40971;44.702;11.030;2023-07-20T09:23:06;12.00;12.00;9.33
55076;PMS7003;40971;44.702;11.030;2023-07-20T09:33:07;12.00;12.00;10.00
55076;PMS7003;40971;44.702;11.030;2023-07-20T09:43:20;15.00;14.00;11.00
55076;PMS7003;40971;44.702;11.030;2023-07-20T09:53:25;17.11;16.67;11.78
55076;PMS7003;40971;44.702;11.030;2023-07-20T10:03:30;14.67;13.67;11.67
55076;PMS7003;40971;44.702;11.030;2023-07-20T10:13:38;15.50;15.50;12.00
55076;PMS7003;40971;44.702;11.030;2023-07-20T10:23:40;14.67;14.67;11.00
55076;PMS7003;40971;44.702;11.030;2023-07-20T10:33:43;16.33;16.33;12.00
55076;PMS7003;40971;44.702;11.030;2023-07-20T10:43:46;13.00;13.00;10.33
55076;PMS7003;40971;44.702;11.030;2023-07-20T10:53:49;16.33;16.33;13.00
55076;PMS7003;40971;44.702;11.030;2023-07-20T11:03:51;15.67;15.67;11.67
55076;PMS7003;40971;44.702;11.030;2023-07-20T11:14:08;17.00;17.00;12.33
55076;PMS7003;40971;44.702;11.030;2023-07-20T11:24:12;18.00;18.00;13.67
55076;PMS7003;40971;44.702;11.030;2023-07-20T11:34:16;15.67;15.67;12.67
55076;PMS7003;40971;44.702;11.030;2023-07-20T11:44:19;18.67;17.67;12.67
55076;PMS7003;40971;44.702;11.030;2023-07-20T11:54:29;19.00;18.00;12.00
55076;PMS7003;40971;44.702;11.030;2023-07-20T12:04:32;17.33;15.67;13.00
55076;PMS7003;40971;44.702;11.030;2023-07-20T12:14:35;16.67;16.33;12.33
55076;PMS7003;40971;44.702;11.030;2023-07-20T12:24:36;18.33;17.67;14.00
55076;PMS7003;40971;44.702;11.030;2023-07-20T12:34:40;18.43;18.43;13.14
55076;PMS7003;40971;44.702;11.030;2023-07-20T12:44:44;17.57;17.57;13.00
55076;PMS7003;40971;44.702;11.030;2023-07-20T12:54:45;20.00;20.00;15.25
55076;PMS7003;40971;44.702;11.030;2023-07-20T13:04:47;17.00;17.00;12.33
55076;PMS7003;40971;44.702;11.030;2023-07-20T13:14:52;20.75;20.75;15.50
55076;PMS7003;40971;44.702;11.030;2023-07-20T13:24:52;20.33;19.33;14.00
55076;PMS7003;40971;44.702;11.030;2023-07-20T13:34:54;18.00;17.33;13.00
55076;PMS7003;40971;44.702;11.030;2023-07-20T13:44:56;15.33;15.33;13.00
55076;PMS7003;40971;44.702;11.030;2023-07-20T13:54:57;17.20;17.20;13.40
55076;PMS7003;40971;44.702;11.030;2023-07-20T14:05:01;17.29;17.29;12.43
55076;PMS7003;40971;44.702;11.030;2023-07-20T14:15:02;17.50;17.00;13.50
55076;PMS7003;40971;44.702;11.030;2023-07-20T14:25:07;19.50;19.50;14.00
55076;PMS7003;40971;44.702;11.030;2023-07-20T14:35:10;16.80;16.80;13.20
55076;PMS7003;40971;44.702;11.030;2023-07-20T14:45:12;16.60;16.60;13.00
55076;PMS7003;40971;44.702;11.030;2023-07-20T14:55:16;17.60;16.80;14.20
55076;PMS7003;40971;44.702;11.030;2023-07-20T15:05:22;17.67;17.00;13.00
55076;PMS7003;40971;44.702;11.030;2023-07-20T15:15:25;18.67;17.00;13.33
55076;PMS7003;40971;44.702;11.030;2023-07-20T15:25:30;17.44;16.56;13.89
55076;PMS7003;40971;44.702;11.030;2023-07-20T15:35:32;14.67;14.67;11.67
55076;PMS7003;40971;44.702;11.030;2023-07-20T15:45:35;17.20;17.00;13.80
55076;PMS7003;40971;44.702;11.030;2023-07-20T15:55:37;17.40;17.40;13.60
55076;PMS7003;40971;44.702;11.030;2023-07-20T16:05:40;19.75;19.75;14.25
55076;PMS7003;40971;44.702;11.030;2023-07-20T16:15:43;22.00;22.00;14.50
55076;PMS7003;40971;44.702;11.030;2023-07-20T16:25:45;18.00;18.00;14.00
55076;PMS7003;40971;44.702;11.030;2023-07-20T16:35:47;20.50;20.00;15.00
55076;PMS7003;40971;44.702;11.030;2023-07-20T16:45:48;17.00;16.00;13.00
55076;PMS7003;40971;44.702;11.030;2023-07-20T16:55:50;19.33;19.33;15.33
55076;PMS7003;40971;44.702;11.030;2023-07-20T17:05:51;20.00;20.00;15.00
55076;PMS7003;40971;44.702;11.030;2023-07-20T17:15:53;21.00;19.50;15.00
55076;PMS7003;40971;44.702;11.030;2023-07-20T17:25:54;18.67;18.00;13.33
55076;PMS7003;40971;44.702;11.030;2023-07-20T17:35:56;20.33;20.33;15.00
55076;PMS7003;40971;44.702;11.030;2023-07-20T17:45:59;26.25;25.25;17.50
55076;PMS7003;40971;44.702;11.030;2023-07-20T17:56:01;21.33;20.33;17.00
55076;PMS7003;40971;44.702;11.030;2023-07-20T18:06:05;19.75;19.13;15.50
55076;PMS7003;40971;44.702;11.030;2023-07-20T18:16:08;22.33;20.67;16.00
55076;PMS7003;40971;44.702;11.030;2023-07-20T18:26:10;21.00;20.00;16.00
55076;PMS7003;40971;44.702;11.030;2023-07-20T18:36:12;22.25;22.25;17.00
55076;PMS7003;40971;44.702;11.030;2023-07-20T18:46:15;24.00;24.00;17.00
55076;PMS7003;40971;44.702;11.030;2023-07-20T18:56:20;26.67;23.67;18.67
55076;PMS7003;40971;44.702;11.030;2023-07-20T19:06:21;30.50;27.75;18.75
55076;PMS7003;40971;44.702;11.030;2023-07-20T19:16:23;22.67;22.67;16.00
55076;PMS7003;40971;44.702;11.030;2023-07-20T19:26:27;25.40;24.40;17.60
55076;PMS7003;40971;44.702;11.030;2023-07-20T19:36:28;28.50;28.50;20.00
55076;PMS7003;40971;44.702;11.030;2023-07-20T19:46:32;29.25;29.00;19.50
55076;PMS7003;40971;44.702;11.030;2023-07-20T19:56:33;26.33;26.00;19.00
55076;PMS7003;40971;44.702;11.030;2023-07-20T20:06:35;35.00;30.00;20.00
55076;PMS7003;40971;44.702;11.030;2023-07-20T20:16:37;29.25;29.25;20.50
55076;PMS7003;40971;44.702;11.030;2023-07-20T20:26:39;24.00;24.00;17.00
55076;PMS7003;40971;44.702;11.030;2023-07-20T20:36:42;27.25;27.25;19.25
55076;PMS7003;40971;44.702;11.030;2023-07-20T20:46:45;27.20;27.20;18.40
55076;PMS7003;40971;44.702;11.030;2023-07-20T20:56:50;28.50;27.50;19.00
55076;PMS7003;40971;44.702;11.030;2023-07-20T21:07:01;27.00;27.00;19.00
55076;PMS7003;40971;44.702;11.030;2023-07-20T21:17:03;29.25;26.00;18.50
55076;PMS7003;40971;44.702;11.030;2023-07-20T21:27:06;28.00;25.75;19.50
55076;PMS7003;40971;44.702;11.030;2023-07-20T21:37:08;25.50;25.50;19.00
55076;PMS7003;40971;44.702;11.030;2023-07-20T21:47:13;30.38;27.50;19.13
55076;PMS7003;40971;44.702;11.030;2023-07-20T21:57:15;31.50;30.50;21.00
55076;PMS7003;40971;44.702;11.030;2023-07-20T22:07:16;28.00;27.00;20.00
55076;PMS7003;40971;44.702;11.030;2023-07-20T22:17:21;32.33;30.50;21.33
55076;PMS7003;40971;44.702;11.030;2023-07-20T22:27:22;33.50;30.50;22.00
55076;PMS7003;40971;44.702;11.030;2023-07-20T22:37:24;27.25;26.75;19.50
55076;PMS7003;40971;44.702;11.030;2023-07-20T22:47:27;28.60;26.60;19.80
55076;PMS7003;40971;44.702;11.030;2023-07-20T22:57:30;30.33;30.17;20.83
55076;PMS7003;40971;44.702;11.030;2023-07-20T23:07:34;26.50;26.50;20.00
55076;PMS7003;40971;44.702;11.030;2023-07-20T23:17:37;30.00;27.25;20.00
55076;PMS7003;40971;44.702;11.030;2023-07-20T23:27:40;27.33;27.33;19.00
55076;PMS7003;40971;44.702;11.030;2023-07-20T23:37:41;31.00;31.00;22.00
55076;PMS7003;40971;44.702;11.030;2023-07-20T23:47:44;39.75;36.25;24.00
55076;PMS7003;40971;44.702;11.030;2023-07-20T23:57:46;33.00;30.50;20.50
